createdAt,value
2018-05-18T00:00:58.422Z,12.54
2018-05-18T00:05:51.719Z,12.59
2018-05-18T00:10:45.041Z,12.60
2018-05-18T00:15:38.365Z,12.58
2018-05-18T00:20:31.687Z,12.56
2018-05-18T00:25:25.779Z,12.53
2018-05-18T00:30:19.832Z,12.40
2018-05-18T00:35:13.130Z,12.39
2018-05-18T00:40:06.444Z,12.37
2018-05-18T00:44:59.747Z,12.37
2018-05-18T00:49:53.815Z,12.33
2018-05-18T00:54:47.880Z,12.37
2018-05-18T00:59:41.176Z,12.23
2018-05-18T01:04:35.272Z,12.24
2018-05-18T01:09:29.340Z,12.18
2018-05-18T01:14:22.644Z,12.18
2018-05-18T01:19:16.776Z,12.19
2018-05-18T01:24:10.076Z,12.08
2018-05-18T01:29:03.384Z,12.19
2018-05-18T01:33:56.691Z,12.17
2018-05-18T01:38:50.017Z,12.19
2018-05-18T01:43:43.326Z,12.12
2018-05-18T01:48:37.446Z,12.05
2018-05-18T01:53:31.486Z,11.99
2018-05-18T01:58:24.783Z,11.90
2018-05-18T02:03:18.877Z,11.83
2018-05-18T02:08:12.178Z,11.82
2018-05-18T02:13:05.479Z,11.91
2018-05-18T02:17:58.778Z,12.08
2018-05-18T02:22:52.106Z,12.17
2018-05-18T02:27:45.417Z,12.08
2018-05-18T02:32:38.713Z,12.13
2018-05-18T02:37:32.027Z,12.16
2018-05-18T02:42:26.110Z,12.27
2018-05-18T02:47:19.418Z,12.31
2018-05-18T02:52:12.720Z,12.34
2018-05-18T02:57:06.014Z,12.36
2018-05-18T03:01:59.390Z,12.33
2018-05-18T03:06:52.641Z,12.36
2018-05-18T03:11:45.933Z,12.35
2018-05-18T03:16:39.238Z,12.27
2018-05-18T03:21:32.518Z,12.29
2018-05-18T03:26:25.815Z,12.36
2018-05-18T03:31:19.869Z,12.33
2018-05-18T03:36:13.187Z,12.32
2018-05-18T03:41:07.264Z,12.34
2018-05-18T03:46:00.928Z,12.39
2018-05-18T03:50:54.219Z,12.34
2018-05-18T03:55:47.527Z,12.35
2018-05-18T04:00:41.574Z,12.38
2018-05-18T04:05:52.502Z,12.39
2018-05-18T04:10:46.603Z,12.47
2018-05-18T04:15:40.663Z,12.50
2018-05-18T04:20:33.977Z,12.55
2018-05-18T04:25:28.011Z,12.58
2018-05-18T04:30:21.379Z,12.56
2018-05-18T04:35:14.619Z,12.63
2018-05-18T04:40:08.679Z,12.72
2018-05-18T04:45:01.992Z,12.71
2018-05-18T04:49:56.060Z,12.73
2018-05-18T04:54:49.366Z,12.77
2018-05-18T04:59:43.428Z,12.81
2018-05-18T05:04:36.734Z,12.90
2018-05-18T05:09:30.798Z,12.92
2018-05-18T05:14:24.115Z,13.03
2018-05-18T05:19:18.175Z,13.07
2018-05-18T05:24:11.473Z,13.24
2018-05-18T05:29:04.758Z,13.28
2018-05-18T05:33:58.058Z,13.24
2018-05-18T05:38:51.345Z,13.28
2018-05-18T05:43:45.412Z,13.45
2018-05-18T05:48:39.480Z,13.58
2018-05-18T05:53:34.016Z,13.88
2018-05-18T05:58:27.379Z,14.29
2018-05-18T06:03:20.607Z,14.37
2018-05-18T06:08:13.905Z,14.21
2018-05-18T06:13:07.238Z,13.98
2018-05-18T06:18:00.535Z,14.00
2018-05-18T06:22:53.823Z,14.01
2018-05-18T06:27:47.133Z,13.86
2018-05-18T06:32:41.193Z,13.80
2018-05-18T06:37:34.508Z,13.88
2018-05-18T06:42:28.567Z,14.00
2018-05-18T06:47:21.867Z,14.10
2018-05-18T06:52:15.163Z,14.35
2018-05-18T06:57:08.527Z,14.33
2018-05-18T07:02:02.586Z,14.14
2018-05-18T07:06:55.888Z,14.16
2018-05-18T07:11:49.217Z,14.31
2018-05-18T07:16:42.488Z,14.32
2018-05-18T07:21:35.799Z,14.60
2018-05-18T07:26:29.362Z,14.81
2018-05-18T07:31:22.679Z,14.58
2018-05-18T07:36:16.077Z,14.65
2018-05-18T07:41:09.384Z,14.83
2018-05-18T07:46:02.696Z,14.86
2018-05-18T07:50:56.003Z,14.98
2018-05-18T07:55:50.920Z,15.06
2018-05-18T08:00:44.249Z,15.46
2018-05-18T08:05:37.565Z,15.85
2018-05-18T08:10:30.867Z,16.09
2018-05-18T08:15:24.175Z,16.08
2018-05-18T08:20:17.473Z,16.49
2018-05-18T08:25:10.787Z,17.33
2018-05-18T08:30:04.111Z,18.38
2018-05-18T08:34:59.051Z,20.32
2018-05-18T08:39:52.384Z,19.74
2018-05-18T08:44:45.704Z,18.99
2018-05-18T08:49:39.019Z,18.41
2018-05-18T08:54:32.355Z,18.21
2018-05-18T08:59:25.668Z,18.05
2018-05-18T09:04:19.027Z,18.45
2018-05-18T09:09:12.394Z,19.26
2018-05-18T09:14:05.704Z,19.83
2018-05-18T09:18:59.777Z,19.43
2018-05-18T09:23:53.082Z,19.27
2018-05-18T09:28:46.670Z,18.83
2018-05-18T09:33:40.774Z,19.20
2018-05-18T09:38:34.083Z,18.91
2018-05-18T09:43:27.390Z,18.75
2018-05-18T09:48:20.700Z,20.22
2018-05-18T09:53:14.029Z,20.51
2018-05-18T09:58:07.354Z,20.73
2018-05-18T10:03:00.663Z,19.80
2018-05-18T10:07:53.991Z,19.16
2018-05-18T10:12:47.288Z,18.02
2018-05-18T10:17:40.595Z,18.11
2018-05-18T10:22:33.913Z,18.17
2018-05-18T10:27:28.004Z,19.53
2018-05-18T10:32:22.082Z,20.18
2018-05-18T10:37:15.382Z,20.34
2018-05-18T10:42:09.470Z,20.35
2018-05-18T10:47:03.520Z,20.83
2018-05-18T10:51:56.852Z,20.65
2018-05-18T10:56:50.925Z,20.64
2018-05-18T11:01:44.215Z,20.48
2018-05-18T11:06:37.519Z,20.49
2018-05-18T11:11:30.823Z,21.25
2018-05-18T11:16:24.129Z,21.04
2018-05-18T11:21:17.434Z,21.18
2018-05-18T11:26:11.954Z,21.37
2018-05-18T11:31:05.171Z,21.19
2018-05-18T11:35:58.493Z,21.50
2018-05-18T11:40:51.794Z,21.48
2018-05-18T11:45:45.088Z,21.39
2018-05-18T11:50:38.388Z,21.34
2018-05-18T11:55:31.692Z,21.09
2018-05-18T12:00:24.987Z,21.26
2018-05-18T12:05:18.283Z,21.67
2018-05-18T12:10:12.936Z,21.26
2018-05-18T12:15:06.248Z,21.38
2018-05-18T12:20:00.297Z,21.25
2018-05-18T12:24:53.597Z,21.35
2018-05-18T12:29:46.908Z,21.48
2018-05-18T12:34:40.269Z,21.61
2018-05-18T12:44:40.834Z,21.02
2018-05-18T12:49:40.338Z,20.99
2018-05-18T12:54:34.383Z,21.26
2018-05-18T12:59:27.788Z,21.11
2018-05-18T13:04:21.009Z,21.13
2018-05-18T13:09:15.199Z,20.92
2018-05-18T13:14:09.286Z,21.18
2018-05-18T13:19:02.577Z,21.16
2018-05-18T13:23:56.852Z,21.24
2018-05-18T13:28:50.156Z,21.41
2018-05-18T13:33:44.211Z,21.34
2018-05-18T13:38:37.518Z,21.55
2018-05-18T13:43:30.840Z,21.43
2018-05-18T13:48:24.227Z,21.48
2018-05-18T13:53:17.495Z,21.22
2018-05-18T13:58:10.789Z,21.33
2018-05-18T14:03:04.102Z,21.32
2018-05-18T14:07:57.405Z,21.35
2018-05-18T14:12:50.695Z,21.51
2018-05-18T14:17:43.997Z,21.57
2018-05-18T14:22:38.103Z,21.52
2018-05-18T14:27:32.191Z,21.61
2018-05-18T14:32:25.483Z,21.45
2018-05-18T14:37:18.783Z,21.66
2018-05-18T14:42:12.089Z,21.56
2018-05-18T14:47:05.410Z,21.79
2018-05-18T14:51:58.711Z,21.95
2018-05-18T14:56:52.009Z,22.09
2018-05-18T15:01:46.077Z,22.23
2018-05-18T15:06:39.344Z,22.34
2018-05-18T15:11:32.649Z,22.46
2018-05-18T15:16:26.813Z,22.47
2018-05-18T15:21:20.821Z,22.65
2018-05-18T15:26:14.130Z,22.72
2018-05-18T15:31:08.184Z,22.60
2018-05-18T15:36:01.482Z,22.62
2018-05-18T15:40:54.783Z,22.48
2018-05-18T15:45:48.186Z,22.46
2018-05-18T15:50:41.497Z,22.45
2018-05-18T15:55:34.793Z,22.34
2018-05-18T16:00:28.938Z,22.11
2018-05-18T16:05:22.296Z,22.18
2018-05-18T16:10:15.616Z,21.60
2018-05-18T16:15:09.280Z,21.41
2018-05-18T16:20:02.589Z,21.26
2018-05-18T16:24:55.905Z,20.91
2018-05-18T16:29:49.976Z,20.76
2018-05-18T16:34:44.036Z,20.31
2018-05-18T16:39:37.334Z,20.37
2018-05-18T16:44:30.624Z,20.47
2018-05-18T16:49:23.959Z,20.56
2018-05-18T16:54:17.272Z,20.36
2018-05-18T16:59:10.584Z,20.27
2018-05-18T17:04:03.865Z,20.42
2018-05-18T17:08:57.175Z,20.35
2018-05-18T17:13:50.487Z,20.40
2018-05-18T17:18:44.587Z,20.38
2018-05-18T17:23:37.899Z,20.32
2018-05-18T17:28:31.195Z,20.20
2018-05-18T17:33:24.514Z,19.80
2018-05-18T17:38:18.565Z,19.52
2018-05-18T17:43:11.851Z,19.46
2018-05-18T17:48:05.170Z,19.54
2018-05-18T17:52:59.233Z,19.14
2018-05-18T17:57:52.533Z,18.79
2018-05-18T18:02:46.587Z,18.67
2018-05-18T18:07:39.889Z,18.55
2018-05-18T18:12:33.187Z,18.36
2018-05-18T18:17:27.239Z,18.16
2018-05-18T18:22:20.627Z,18.13
2018-05-18T18:27:14.639Z,18.10
2018-05-18T18:32:07.942Z,17.90
2018-05-18T18:41:59.467Z,17.22
2018-05-18T18:46:52.782Z,17.00
2018-05-18T18:51:46.848Z,17.08
2018-05-18T18:56:40.144Z,17.20
2018-05-18T19:01:33.523Z,17.23
2018-05-18T19:06:27.587Z,17.18
2018-05-18T19:11:20.925Z,17.20
2018-05-18T19:16:14.226Z,17.02
2018-05-18T19:21:08.356Z,16.83
2018-05-18T19:26:01.665Z,16.81
2018-05-18T19:30:56.206Z,16.83
2018-05-18T19:35:49.507Z,16.68
2018-05-18T19:40:42.805Z,16.50
2018-05-18T19:45:36.158Z,16.62
2018-05-18T19:50:29.457Z,16.44
2018-05-18T19:55:23.515Z,16.53
2018-05-18T20:00:16.828Z,16.30
2018-05-18T20:05:10.927Z,16.22
2018-05-18T20:10:05.005Z,16.18
2018-05-18T20:14:58.311Z,16.16
2018-05-18T20:19:52.465Z,16.00
2018-05-18T20:24:46.498Z,16.14
2018-05-18T20:29:40.590Z,16.12
2018-05-18T20:34:34.667Z,15.83
2018-05-18T20:39:27.994Z,15.72
2018-05-18T20:44:22.072Z,15.79
2018-05-18T20:49:15.421Z,15.79
2018-05-18T20:54:09.502Z,15.71
2018-05-18T20:59:02.826Z,15.62
2018-05-18T21:03:56.132Z,15.48
2018-05-18T21:08:49.430Z,15.35
2018-05-18T21:13:42.735Z,15.25
2018-05-18T21:18:36.803Z,15.36
2018-05-18T21:23:30.691Z,15.41
2018-05-18T21:28:24.002Z,15.48
2018-05-18T21:33:18.074Z,15.50
2018-05-18T21:38:11.377Z,15.46
2018-05-18T21:43:05.451Z,15.35
2018-05-18T21:47:58.753Z,15.23
2018-05-18T21:52:52.816Z,15.16
2018-05-18T21:57:46.122Z,15.19
2018-05-18T22:02:40.227Z,14.79
2018-05-18T22:07:33.523Z,14.75
2018-05-18T22:12:26.867Z,14.85
2018-05-18T22:17:20.934Z,14.50
2018-05-18T22:22:14.296Z,14.37
2018-05-18T22:27:07.623Z,14.25
2018-05-18T22:32:01.708Z,14.35
2018-05-18T22:36:55.783Z,14.68
2018-05-18T22:41:49.083Z,14.52
2018-05-18T22:46:42.399Z,14.44
2018-05-18T22:51:35.733Z,14.42
2018-05-18T22:56:29.787Z,14.21
2018-05-18T23:01:23.079Z,14.23
2018-05-18T23:06:16.402Z,14.37
2018-05-18T23:11:09.703Z,14.27
2018-05-18T23:16:02.972Z,14.26
2018-05-18T23:20:56.266Z,14.14
2018-05-18T23:25:49.641Z,14.19
2018-05-18T23:30:42.909Z,14.23
2018-05-18T23:35:36.223Z,14.20
2018-05-18T23:40:29.553Z,14.04
2018-05-18T23:45:22.855Z,13.98
2018-05-18T23:50:17.030Z,14.10
2018-05-18T23:55:10.323Z,14.08
